Time;durP1;ratioP1;P1;durP2;ratioP2;P2;SDS_P1;SDS_P2;PMS_P1;PMS_P2;Temp;Humidity;BMP_temperature;BMP_pressure;BME280_temperature;BME280_humidity;BME280_pressure;Samples;Min_cycle;Max_cycle;Signal;HPM_P1;HPM_P2
2021/04/02 00:02:00;;;;;;;3.00;2.00;;;;;;;13.70;65.56;101035.31;4824387;28;108671;-61
2021/04/02 00:04:26;;;;;;;3.45;2.22;;;;;;;13.68;65.45;101032.09;4824757;28;98070;-60
2021/04/02 00:06:52;;;;;;;2.58;2.10;;;;;;;13.70;65.60;101032.63;4806398;28;128369;-60
2021/04/02 00:09:19;;;;;;;3.65;2.20;;;;;;;13.66;65.51;101036.16;4823223;28;98527;-64
2021/04/02 00:11:45;;;;;;;3.33;2.65;;;;;;;13.69;65.92;101032.91;4806842;28;122723;-60
2021/04/02 00:14:11;;;;;;;3.47;2.60;;;;;;;13.66;65.81;101031.53;4823613;28;112591;-60
2021/04/02 00:16:37;;;;;;;3.13;2.30;;;;;;;13.66;65.76;101031.53;4824996;28;98623;-64
2021/04/02 00:19:04;;;;;;;2.78;2.13;;;;;;;13.63;66.03;101028.56;4822877;28;98463;-63
2021/04/02 00:21:30;;;;;;;3.22;2.35;;;;;;;13.61;65.93;101034.28;4822903;28;98181;-64
2021/04/02 00:23:56;;;;;;;2.78;2.40;;;;;;;13.63;65.80;101031.28;4825061;28;97873;-60
2021/04/02 00:26:23;;;;;;;2.92;2.30;;;;;;;13.62;65.88;101032.38;4822345;28;128072;-64
2021/04/02 00:28:53;;;;;;;4.38;2.85;;;;;;;13.59;66.15;101025.59;4807045;28;112786;-64
2021/04/02 00:31:21;;;;;;;3.40;2.60;;;;;;;13.59;66.11;101020.19;4825620;28;98046;-60
2021/04/02 00:33:47;;;;;;;3.47;2.78;;;;;;;13.57;65.95;101026.97;4825327;28;97891;-60
2021/04/02 00:36:13;;;;;;;3.83;3.00;;;;;;;13.55;66.18;101026.41;4824265;28;116410;-60
2021/04/02 00:38:39;;;;;;;4.28;2.78;;;;;;;13.53;65.83;101025.91;4821615;28;129044;-64
2021/04/02 00:41:06;;;;;;;3.72;2.72;;;;;;;13.53;66.06;101028.59;4824568;28;111145;-64
2021/04/02 00:43:40;;;;;;;4.00;2.90;;;;;;;13.48;65.75;101026.72;4824250;28;97796;-60
2021/04/02 00:46:07;;;;;;;3.65;2.70;;;;;;;13.45;65.31;101019.94;4824064;28;107604;-60
2021/04/02 00:48:34;;;;;;;4.28;2.83;;;;;;;13.46;65.43;101023.47;4824397;28;98603;-64
2021/04/02 00:51:06;;;;;;;3.75;3.03;;;;;;;13.42;65.43;101030.50;4823805;28;98380;-64
2021/04/02 00:53:33;;;;;;;;;;;;;;;13.34;65.31;101031.06;4823502;28;97900;-64
2021/04/02 00:56:01;;;;;;;3.08;2.35;;;;;;;13.34;65.61;101037.28;4824248;28;98566;-61
2021/04/02 00:58:29;;;;;;;4.00;2.65;;;;;;;13.32;65.68;101034.00;4824053;28;98392;-61
2021/04/02 01:00:55;;;;;;;3.85;2.50;;;;;;;13.29;65.58;101034.59;4824522;28;98380;-64
2021/04/02 01:03:23;;;;;;;3.38;2.30;;;;;;;13.23;65.47;101041.88;4824240;28;97887;-60
2021/04/02 01:05:51;;;;;;;3.65;2.58;;;;;;;13.27;65.32;101040.25;4825141;28;97787;-64
2021/04/02 01:08:20;;;;;;;3.58;2.28;;;;;;;13.25;65.46;101041.63;4823838;28;97883;-64
2021/04/02 01:10:49;;;;;;;3.58;2.03;;;;;;;13.22;65.57;101036.72;4823401;28;113351;-64
2021/04/02 01:13:26;;;;;;;3.42;2.03;;;;;;;13.21;65.41;101037.81;4824376;28;97778;-60
2021/04/02 01:16:19;;;;;;;2.63;1.88;;;;;;;13.27;65.36;101047.56;4823409;28;99186;-64
2021/04/02 01:19:28;;;;;;;2.75;2.10;;;;;;;13.32;65.25;101050.25;4809471;28;113902;-64
2021/04/02 01:22:09;;;;;;;2.88;1.98;;;;;;;13.38;64.71;101051.91;4822313;28;115493;-64
2021/04/02 01:25:06;;;;;;;4.22;2.25;;;;;;;13.40;64.60;101046.19;4822907;28;98057;-64
2021/04/02 01:28:23;;;;;;;3.38;2.10;;;;;;;13.42;64.57;101055.69;4822047;28;98156;-60
2021/04/02 01:30:49;;;;;;;2.92;1.80;;;;;;;13.42;64.52;101058.38;4826601;28;121228;-60
2021/04/02 01:33:15;;;;;;;2.45;1.73;;;;;;;13.42;63.98;101055.69;4822436;28;97835;-61
2021/04/02 01:35:41;;;;;;;3.28;1.80;;;;;;;13.43;64.16;101067.31;4806131;28;113041;-61
2021/04/02 01:38:11;;;;;;;2.65;1.60;;;;;;;13.38;63.85;101061.91;4821595;28;103074;-61
2021/04/02 01:40:39;;;;;;;3.20;1.85;;;;;;;13.34;63.90;101067.06;4821638;28;99121;-64
2021/04/02 01:43:12;;;;;;;2.83;1.80;;;;;;;13.34;63.65;101074.38;4822064;28;98574;-60
2021/04/02 01:45:39;;;;;;;2.70;1.65;;;;;;;13.33;63.58;101068.16;4822317;28;98065;-61
2021/04/02 01:48:06;;;;;;;2.30;1.50;;;;;;;13.26;63.56;101079.25;4806717;28;98442;-64
2021/04/02 01:50:33;;;;;;;2.40;1.38;;;;;;;13.26;63.69;101075.72;4791367;28;98253;-60
2021/04/02 01:52:59;;;;;;;2.50;1.45;;;;;;;13.26;63.65;101081.13;4822182;28;98507;-66
2021/04/02 01:55:25;;;;;;;3.08;1.52;;;;;;;13.22;63.91;101072.72;4821915;28;97993;-61
2021/04/02 01:57:51;;;;;;;2.65;1.40;;;;;;;13.22;63.58;101077.31;4789502;28;119944;-60
2021/04/02 02:00:30;;;;;;;2.50;1.15;;;;;;;13.17;63.86;101086.25;4804898;28;128867;-64
2021/04/02 02:02:56;;;;;;;2.25;1.23;;;;;;;13.10;64.10;101085.69;4821379;28;97826;-64
2021/04/02 02:05:23;;;;;;;2.15;1.23;;;;;;;13.11;63.94;101092.72;4806709;28;101356;-60
2021/04/02 02:07:52;;;;;;;1.95;1.00;;;;;;;13.11;64.02;101084.63;4820943;28;99197;-60
2021/04/02 02:10:19;;;;;;;2.28;1.10;;;;;;;13.09;63.76;101085.97;4821554;28;104773;-64
2021/04/02 02:12:46;;;;;;;2.10;1.05;;;;;;;13.01;64.04;101096.25;4823575;28;98186;-64
2021/04/02 02:15:14;;;;;;;2.67;0.90;;;;;;;13.05;63.77;101090.28;4823731;28;97886;-60
2021/04/02 02:17:48;;;;;;;2.00;0.82;;;;;;;12.97;64.13;101095.16;4821223;28;99219;-64
2021/04/02 02:20:15;;;;;;;1.92;0.93;;;;;;;12.95;64.16;101091.09;4823557;28;98729;-64
2021/04/02 02:22:41;;;;;;;1.50;0.90;;;;;;;12.92;63.98;101103.25;4822715;28;114895;-60
2021/04/02 02:25:10;;;;;;;2.03;0.90;;;;;;;12.93;64.26;101099.47;4822962;28;97877;-60
2021/04/02 02:27:36;;;;;;;1.90;0.75;;;;;;;12.93;64.17;101098.66;4822216;28;114042;-60
2021/04/02 02:30:19;;;;;;;1.80;0.80;;;;;;;12.87;64.25;101105.94;4823100;28;98308;-64
2021/04/02 02:32:46;;;;;;;1.73;0.70;;;;;;;12.88;64.45;101107.56;4822804;28;97798;-64
2021/04/02 02:35:12;;;;;;;1.63;0.80;;;;;;;12.86;64.41;101103.53;4821931;28;102687;-60
2021/04/02 02:37:41;;;;;;;1.70;0.70;;;;;;;12.85;64.31;101101.88;4821519;28;128688;-64
2021/04/02 02:40:19;;;;;;;1.60;0.50;;;;;;;12.78;64.49;101108.38;4790781;28;98146;-64
2021/04/02 02:42:45;;;;;;;1.15;0.65;;;;;;;12.76;64.43;101112.41;4821829;28;98267;-61
2021/04/02 02:45:12;;;;;;;1.65;0.80;;;;;;;12.74;64.58;101109.97;4822891;28;117702;-60
2021/04/02 02:47:39;;;;;;;1.90;0.90;;;;;;;12.69;64.04;101115.38;4821892;28;120703;-61
2021/04/02 02:50:09;;;;;;;2.05;1.00;;;;;;;12.71;64.37;101112.41;4823767;28;98595;-63
2021/04/02 02:52:35;;;;;;;2.00;0.90;;;;;;;12.71;64.40;101123.22;4825178;28;98471;-61
2021/04/02 02:55:03;;;;;;;2.05;1.20;;;;;;;12.69;64.07;101122.66;4808479;28;98033;-60
2021/04/02 02:57:30;;;;;;;2.42;1.38;;;;;;;12.59;64.23;101118.03;4807634;28;98843;-64
2021/04/02 02:59:58;;;;;;;2.63;1.20;;;;;;;12.61;64.53;101121.28;4808041;28;99193;-63
2021/04/02 03:02:25;;;;;;;1.80;1.23;;;;;;;12.61;64.30;101118.56;4825141;28;98144;-64
2021/04/02 03:04:51;;;;;;;2.42;1.30;;;;;;;12.58;64.17;101126.44;4824333;28;97929;-64
2021/04/02 03:07:17;;;;;;;1.80;1.20;;;;;;;12.57;64.29;101128.28;4806999;28;126238;-61
2021/04/02 03:09:43;;;;;;;2.55;1.40;;;;;;;12.58;64.40;101123.72;4807610;28;126872;-60
2021/04/02 03:12:09;;;;;;;2.00;1.40;;;;;;;12.55;64.17;101121.53;4823243;28;98597;-63
2021/04/02 03:14:35;;;;;;;2.75;1.60;;;;;;;12.53;64.22;101138.81;4823328;28;108783;-64
2021/04/02 03:17:04;;;;;;;2.35;1.67;;;;;;;12.52;64.49;101123.69;4823387;28;98882;-64
2021/04/02 03:19:30;;;;;;;3.47;1.80;;;;;;;12.51;64.24;101132.88;4825687;28;99046;-60
2021/04/02 03:21:56;;;;;;;2.50;1.65;;;;;;;12.50;64.44;101130.44;4792294;28;98003;-64
2021/04/02 03:24:22;;;;;;;3.95;2.00;;;;;;;12.48;64.49;101130.69;4808322;28;108053;-64
2021/04/02 03:26:51;;;;;;;2.50;1.98;;;;;;;12.45;64.71;101128.50;4807553;28;102886;-60
2021/04/02 03:29:17;;;;;;;3.30;2.08;;;;;;;12.42;64.27;101123.66;4825049;28;98518;-60
2021/04/02 03:31:43;;;;;;;3.08;1.83;;;;;;;12.42;64.10;101120.97;4823492;28;98028;-64
2021/04/02 03:34:12;;;;;;;3.72;2.00;;;;;;;12.41;64.33;101118.50;4808182;28;97917;-64
2021/04/02 03:36:39;;;;;;;3.97;2.30;;;;;;;12.36;64.89;101122.00;4808015;28;98991;-64
2021/04/02 03:39:09;;;;;;;3.35;2.03;;;;;;;12.39;64.21;101116.06;4807597;28;98503;-64
2021/04/02 03:41:35;;;;;;;4.45;2.38;;;;;;;12.37;64.60;101115.50;4793284;28;100745;-64
2021/04/02 03:44:01;;;;;;;4.13;2.05;;;;;;;12.34;64.38;101107.09;4822558;28;117322;-60
2021/04/02 03:46:27;;;;;;;2.80;1.80;;;;;;;12.32;64.83;101110.09;4808259;28;116853;-60
2021/04/02 03:48:55;;;;;;;3.33;2.10;;;;;;;12.32;64.06;101114.69;4822757;28;99050;-60
2021/04/02 03:51:23;;;;;;;3.00;1.77;;;;;;;12.33;64.25;101116.31;4793045;28;97991;-64
2021/04/02 03:53:56;;;;;;;3.08;2.10;;;;;;;12.28;64.15;101114.38;4823569;28;98054;-64
2021/04/02 03:56:34;;;;;;;3.40;2.03;;;;;;;12.29;64.07;101116.81;4808765;28;104099;-64
2021/04/02 03:59:02;;;;;;;4.88;2.00;;;;;;;12.26;64.33;101119.22;4793602;28;98676;-60
2021/04/02 04:01:34;;;;;;;3.20;1.98;;;;;;;12.23;64.50;101111.66;4821873;28;97772;-60
2021/04/02 04:04:01;;;;;;;3.22;2.03;;;;;;;12.24;64.62;101116.00;4792598;28;98232;-63
2021/04/02 04:06:28;;;;;;;3.65;1.88;;;;;;;12.24;64.34;101116.81;4822913;28;100876;-64
2021/04/02 04:08:57;;;;;;;2.80;1.90;;;;;;;12.24;64.25;101116.81;4822510;28;98767;-60
2021/04/02 04:11:25;;;;;;;3.30;2.20;;;;;;;12.23;64.57;101117.88;4791527;28;114533;-60
2021/04/02 04:13:52;;;;;;;2.63;1.90;;;;;;;12.24;64.37;101119.50;4823057;28;98182;-64
2021/04/02 04:16:21;;;;;;;2.85;2.00;;;;;;;12.21;64.63;101119.22;4822800;28;99030;-63
2021/04/02 04:18:48;;;;;;;3.55;1.95;;;;;;;12.21;64.22;101122.72;4838104;28;99004;-60
2021/04/02 04:21:14;;;;;;;2.90;1.90;;;;;;;12.20;64.34;101117.59;4791816;28;98512;-64
2021/04/02 04:23:40;;;;;;;4.10;2.05;;;;;;;12.18;64.66;101117.88;4823599;28;97899;-61
2021/04/02 04:26:07;;;;;;;2.38;1.83;;;;;;;12.18;64.48;101117.03;4822883;28;98508;-64
2021/04/02 04:28:33;;;;;;;3.50;1.95;;;;;;;12.16;64.60;101114.59;4821916;28;116971;-60
2021/04/02 04:31:01;;;;;;;4.03;1.90;;;;;;;12.18;64.24;101115.16;4790990;28;115091;-64
2021/04/02 04:33:28;;;;;;;3.83;2.00;;;;;;;12.15;64.19;101110.28;4810940;28;98256;-60
2021/04/02 04:35:54;;;;;;;3.33;1.77;;;;;;;12.11;64.73;101108.38;4821971;28;112482;-63
2021/04/02 04:38:20;;;;;;;2.95;1.65;;;;;;;12.10;64.84;101120.22;4821417;28;127827;-61
2021/04/02 04:40:47;;;;;;;2.72;1.95;;;;;;;12.08;64.61;101114.28;4805453;28;127197;-60
2021/04/02 04:43:13;;;;;;;3.42;1.70;;;;;;;12.05;64.67;101118.31;4822151;28;107041;-64
2021/04/02 04:45:40;;;;;;;3.22;2.10;;;;;;;12.02;64.67;101119.66;4807209;28;117709;-60
2021/04/02 04:48:06;;;;;;;2.85;1.65;;;;;;;12.00;64.41;101118.28;4806587;28;99026;-60
2021/04/02 04:50:33;;;;;;;4.35;2.00;;;;;;;11.98;64.96;101115.84;4824136;28;113489;-60
2021/04/02 04:53:05;;;;;;;3.83;1.98;;;;;;;11.95;64.60;101115.56;4822492;28;98223;-60
2021/04/02 04:55:32;;;;;;;3.42;1.73;;;;;;;11.95;64.71;101129.88;4824423;28;97818;-63
2021/04/02 04:57:58;;;;;;;2.47;1.40;;;;;;;11.92;65.06;101125.00;4823526;28;97777;-63
2021/04/02 05:00:24;;;;;;;3.67;1.70;;;;;;;11.92;64.70;101125.00;4821701;28;122193;-64
2021/04/02 05:02:51;;;;;;;4.00;2.15;;;;;;;11.92;64.77;101125.00;4806580;28;97785;-63
2021/04/02 05:05:28;;;;;;;2.92;1.73;;;;;;;11.88;64.84;101120.38;4822709;28;98444;-63
2021/04/02 05:07:55;;;;;;;3.85;1.85;;;;;;;11.88;65.25;101117.69;4792400;28;99091;-60
2021/04/02 05:10:21;;;;;;;3.08;1.77;;;;;;;11.86;65.32;101117.91;4821734;28;98656;-63
2021/04/02 05:12:48;;;;;;;3.22;1.92;;;;;;;11.85;64.97;101124.41;4789929;28;105462;-64
2021/04/02 05:15:15;;;;;;;2.58;1.70;;;;;;;11.87;64.74;101126.81;4823676;28;99807;-63
2021/04/02 05:17:42;;;;;;;2.85;1.77;;;;;;;11.88;64.85;101123.88;4790802;28;116467;-64
2021/04/02 05:20:09;;;;;;;3.08;1.80;;;;;;;11.86;64.99;101127.91;4822262;28;97983;-63
2021/04/02 05:22:36;;;;;;;3.30;1.90;;;;;;;11.86;65.38;101123.31;4790946;28;110608;-63
2021/04/02 05:25:04;;;;;;;2.50;1.98;;;;;;;11.85;65.24;101118.19;4823984;28;98333;-60
2021/04/02 05:27:30;;;;;;;3.60;1.88;;;;;;;11.86;65.64;101122.50;4822830;28;115689;-60
2021/04/02 05:29:57;;;;;;;4.18;1.80;;;;;;;11.85;65.23;101121.69;4822375;28;98107;-63
2021/04/02 05:32:26;;;;;;;3.95;1.73;;;;;;;11.85;65.73;101110.09;4826605;28;106591;-60
2021/04/02 05:34:52;;;;;;;4.20;2.25;;;;;;;11.84;65.37;101114.69;4839795;28;98450;-60
2021/04/02 05:37:18;;;;;;;3.20;1.90;;;;;;;11.85;65.58;101115.50;4838358;28;120211;-63
2021/04/02 05:39:44;;;;;;;3.00;2.08;;;;;;;11.85;65.63;101112.78;4839474;28;98346;-60
2021/04/02 05:42:12;;;;;;;3.92;2.20;;;;;;;11.85;66.04;101101.97;4839610;28;107816;-63
2021/04/02 05:44:38;;;;;;;3.17;2.08;;;;;;;11.86;65.88;101115.22;4837582;28;99267;-64
2021/04/02 05:47:06;;;;;;;3.22;1.98;;;;;;;11.88;65.75;101121.19;4838948;28;97880;-63
2021/04/02 05:49:33;;;;;;;2.83;2.00;;;;;;;11.91;65.42;101114.47;4837420;28;99496;-61
2021/04/02 05:52:00;;;;;;;3.10;2.05;;;;;;;11.96;65.80;101118.00;4839751;28;97997;-60
2021/04/02 05:54:44;;;;;;;3.92;2.38;;;;;;;11.95;65.85;101110.16;4839261;28;98426;-64
2021/04/02 05:57:10;;;;;;;4.63;2.75;;;;;;;11.96;65.50;101115.28;4837760;28;98647;-64
2021/04/02 05:59:38;;;;;;;4.47;3.00;;;;;;;11.97;65.65;101113.41;4839013;28;97757;-60
2021/04/02 06:02:05;;;;;;;4.82;3.15;;;;;;;11.98;65.49;101115.84;4832267;28;98146;-63
2021/04/02 06:04:34;;;;;;;5.05;3.40;;;;;;;11.99;65.87;101116.66;4818554;28;123988;-60
2021/04/02 06:07:00;;;;;;;8.48;4.13;;;;;;;12.00;66.01;101111.00;4837280;28;98593;-64
2021/04/02 06:09:26;;;;;;;5.95;4.00;;;;;;;11.99;65.97;101117.47;4838001;28;127329;-60
2021/04/02 06:11:52;;;;;;;6.40;4.20;;;;;;;11.97;66.04;101110.69;4852546;28;115212;-60
2021/04/02 06:14:18;;;;;;;7.45;4.75;;;;;;;11.99;66.18;101117.47;4838623;28;98328;-60
2021/04/02 06:16:51;;;;;;;7.53;4.93;;;;;;;11.97;65.59;101114.22;4837931;28;98872;-60
2021/04/02 06:19:17;;;;;;;8.40;5.13;;;;;;;11.98;65.38;101120.41;4821746;28;98299;-64
2021/04/02 06:21:51;;;;;;;9.73;5.22;;;;;;;11.97;66.16;101118.81;4837353;28;104122;-64
2021/04/02 06:24:34;;;;;;;8.23;5.32;;;;;;;11.99;66.07;101124.78;4839790;28;98269;-60
2021/04/02 06:27:01;;;;;;;10.13;5.57;;;;;;;12.00;65.87;101121.81;4840827;28;98481;-64
2021/04/02 06:29:29;;;;;;;8.23;5.55;;;;;;;12.00;66.15;101123.69;4841523;28;98092;-64
2021/04/02 06:31:55;;;;;;;9.35;5.75;;;;;;;12.01;65.88;101128.81;4841948;28;102777;-61
2021/04/02 06:34:21;;;;;;;9.23;6.15;;;;;;;11.99;66.38;101124.78;4839579;28;98859;-60
2021/04/02 06:36:50;;;;;;;8.52;5.68;;;;;;;11.99;66.05;101128.28;4856128;28;98304;-60
2021/04/02 06:39:16;;;;;;;9.48;5.45;;;;;;;12.00;65.95;101131.81;4841770;28;98347;-61
2021/04/02 06:41:42;;;;;;;8.23;5.82;;;;;;;11.97;66.07;101126.91;4824605;28;98238;-64
2021/04/02 06:44:11;;;;;;;9.35;5.70;;;;;;;11.98;66.37;101136.63;4824066;28;99191;-60
2021/04/02 06:46:38;;;;;;;10.40;6.20;;;;;;;11.99;66.13;101132.88;4842357;28;98529;-64
2021/04/02 06:49:15;;;;;;;9.50;6.15;;;;;;;11.96;66.04;101134.22;4841726;28;98406;-60
2021/04/02 06:51:49;;;;;;;10.80;6.03;;;;;;;12.01;65.94;101139.63;4841329;28;97945;-60
2021/04/02 06:54:18;;;;;;;8.82;5.85;;;;;;;12.02;66.57;101141.28;4840768;28;111934;-60
2021/04/02 06:56:58;;;;;;;9.88;5.93;;;;;;;12.01;66.01;101139.63;4839962;28;98350;-64
2021/04/02 06:59:26;;;;;;;8.40;5.85;;;;;;;12.09;66.38;101137.53;4839450;28;98260;-64
2021/04/02 07:01:54;;;;;;;10.48;5.88;;;;;;;12.12;66.48;101143.22;4841298;28;98025;-60
2021/04/02 07:04:23;;;;;;;10.68;6.20;;;;;;;12.13;66.01;101144.03;4832126;28;98187;-64
2021/04/02 07:06:51;;;;;;;10.40;6.00;;;;;;;12.10;66.07;101142.66;4841090;28;97994;-61
2021/04/02 07:09:20;;;;;;;10.50;6.63;;;;;;;12.09;66.58;101153.72;4839460;28;98297;-64
2021/04/02 07:11:48;;;;;;;9.82;6.32;;;;;;;12.05;66.48;101148.03;4855356;28;97968;-64
2021/04/02 07:14:15;;;;;;;8.73;5.85;;;;;;;12.09;66.18;101149.13;4839586;28;98338;-60
2021/04/02 07:16:41;;;;;;;10.68;5.88;;;;;;;12.09;66.66;101157.25;4824260;28;98351;-61
2021/04/02 07:19:07;;;;;;;10.23;5.88;;;;;;;12.11;66.69;101157.00;4828632;28;117740;-61
2021/04/02 07:21:36;;;;;;;9.77;6.20;;;;;;;12.11;66.19;101157.81;4833140;28;115774;-64
2021/04/02 07:24:03;;;;;;;10.27;6.18;;;;;;;12.13;66.72;101154.84;4822500;28;128275;-64
2021/04/02 07:26:29;;;;;;;12.05;6.25;;;;;;;12.11;66.90;101159.72;4839827;28;114188;-64
2021/04/02 07:28:55;;;;;;;9.05;6.40;;;;;;;12.13;66.62;101155.66;4835061;28;123100;-64
2021/04/02 07:31:22;;;;;;;9.77;6.43;;;;;;;12.17;66.33;101151.34;4833337;28;118212;-60
2021/04/02 07:33:48;;;;;;;9.32;5.88;;;;;;;12.18;66.58;101149.47;4830842;28;122383;-64
2021/04/02 07:36:17;;;;;;;10.70;6.20;;;;;;;12.19;66.32;101156.50;4853250;28;129081;-65
2021/04/02 07:38:50;;;;;;;9.88;5.88;;;;;;;12.20;66.46;101148.13;4838856;28;98343;-65
2021/04/02 07:41:17;;;;;;;10.85;6.47;;;;;;;12.22;66.17;101146.00;4841788;28;97993;-61
2021/04/02 07:43:54;;;;;;;9.50;6.13;;;;;;;12.23;66.63;101144.91;4838890;28;98471;-61
2021/04/02 07:46:27;;;;;;;10.75;6.47;;;;;;;12.28;66.44;101142.22;4838967;28;98309;-65
2021/04/02 07:49:11;;;;;;;9.98;5.88;;;;;;;12.32;66.03;101141.72;4837317;28;98309;-64
2021/04/02 07:51:49;;;;;;;9.00;6.20;;;;;;;12.32;66.35;101149.81;4840636;28;98164;-65
2021/04/02 07:54:20;;;;;;;9.90;6.60;;;;;;;12.32;65.88;101144.41;4840895;28;98781;-61
2021/04/02 07:56:56;;;;;;;10.48;6.03;;;;;;;12.31;66.55;101149.00;4838304;28;98834;-64
2021/04/02 07:59:41;;;;;;;8.63;5.78;;;;;;;12.29;66.42;101151.97;4824770;28;98235;-64
2021/04/02 08:02:12;;;;;;;10.10;6.35;;;;;;;12.31;66.34;101150.91;4838497;28;98197;-64
2021/04/02 08:04:57;;;;;;;10.35;6.03;;;;;;;12.29;66.29;101159.25;4824191;28;98590;-65
2021/04/02 08:07:37;;;;;;;9.38;6.07;;;;;;;12.31;66.19;101157.13;4840578;28;98175;-64
2021/04/02 08:10:08;;;;;;;10.52;6.20;;;;;;;12.35;66.62;101154.72;4836478;28;98552;-60
2021/04/02 08:12:34;;;;;;;8.77;5.93;;;;;;;12.37;66.65;101149.84;4838552;28;100813;-64
2021/04/02 08:15:10;;;;;;;9.02;5.93;;;;;;;12.37;66.46;101166.06;4838101;28;98983;-64
2021/04/02 08:17:36;;;;;;;9.60;6.13;;;;;;;12.38;66.58;101164.97;4830363;28;99253;-61
2021/04/02 08:20:20;;;;;;;9.77;5.90;;;;;;;12.38;66.13;101167.69;4839359;28;100317;-61
2021/04/02 08:22:50;;;;;;;9.02;5.75;;;;;;;12.41;66.03;101167.97;4840752;28;110477;-61
2021/04/02 08:25:18;;;;;;;10.63;5.93;;;;;;;12.48;66.02;101163.16;4834904;28;98803;-64
2021/04/02 08:27:45;;;;;;;9.18;5.57;;;;;;;12.56;66.00;101169.94;4837682;28;98748;-64
2021/04/02 08:30:14;;;;;;;8.88;6.10;;;;;;;12.62;65.92;101168.09;4837909;28;98582;-64
2021/04/02 08:32:46;;;;;;;10.15;6.10;;;;;;;12.74;65.77;101169.50;4839520;28;98971;-61
2021/04/02 08:35:14;;;;;;;9.90;6.25;;;;;;;12.88;65.23;101166.28;4840731;28;98134;-61
2021/04/02 08:38:00;;;;;;;9.18;5.93;;;;;;;13.01;64.29;101169.31;4838569;28;98262;-64
2021/04/02 08:40:26;;;;;;;9.70;5.50;;;;;;;13.06;64.20;101171.22;4840132;28;98751;-61
2021/04/02 08:42:59;;;;;;;8.82;5.72;;;;;;;13.17;64.22;101166.66;4838235;28;98499;-61
2021/04/02 08:45:25;;;;;;;8.57;5.63;;;;;;;13.25;64.35;101175.09;4839383;28;98702;-64
2021/04/02 08:47:51;;;;;;;7.10;5.50;;;;;;;13.26;63.83;101165.88;4837950;28;125629;-64
2021/04/02 08:50:17;;;;;;;9.02;5.60;;;;;;;13.31;63.68;101173.19;4838599;28;120388;-61
2021/04/02 08:52:43;;;;;;;7.90;5.70;;;;;;;13.36;63.56;101172.38;4840398;28;107917;-64
2021/04/02 08:55:10;;;;;;;8.18;5.13;;;;;;;13.35;63.75;101168.88;4838945;28;108969;-61
2021/04/02 08:57:37;;;;;;;8.43;5.20;;;;;;;13.40;63.53;101170.75;4834197;28;98946;-64
2021/04/02 09:00:10;;;;;;;10.23;5.53;;;;;;;13.42;63.00;101164.00;4838115;28;98392;-61
2021/04/02 09:02:37;;;;;;;7.32;5.03;;;;;;;13.42;63.56;101166.72;4840423;28;98172;-61
2021/04/02 09:05:07;;;;;;;7.95;5.20;;;;;;;13.44;63.07;101167.28;4838519;28;98596;-61
2021/04/02 09:07:38;;;;;;;7.60;5.25;;;;;;;13.47;63.26;101165.91;4837666;28;99384;-61
2021/04/02 09:10:17;;;;;;;8.20;5.47;;;;;;;13.48;62.77;101171.06;4831951;28;98778;-64
2021/04/02 09:12:50;;;;;;;8.43;5.22;;;;;;;13.49;62.91;101161.84;4839485;28;97890;-61
2021/04/02 09:15:22;;;;;;;8.30;5.78;;;;;;;13.55;62.90;101164.53;4839359;28;99435;-61
2021/04/02 09:17:48;;;;;;;8.05;5.50;;;;;;;13.68;62.63;101155.91;4839530;28;99216;-64
2021/04/02 09:20:15;;;;;;;6.95;5.20;;;;;;;13.73;62.63;101153.19;4837413;28;98431;-61
2021/04/02 09:22:45;;;;;;;7.70;5.30;;;;;;;13.74;62.52;101158.31;4837785;28;97953;-64
2021/04/02 09:25:21;;;;;;;7.47;5.00;;;;;;;13.72;62.64;101154.28;4839728;28;99254;-64
2021/04/02 09:27:47;;;;;;;6.95;4.88;;;;;;;13.73;63.17;101154.00;4836514;28;97964;-64
2021/04/02 09:30:27;;;;;;;7.25;5.13;;;;;;;13.77;62.64;101148.03;4836156;28;126451;-65
2021/04/02 09:32:53;;;;;;;7.35;4.72;;;;;;;13.81;62.81;101149.94;4839853;28;98013;-64
2021/04/02 09:35:20;;;;;;;7.00;4.60;;;;;;;13.89;62.75;101146.66;4838830;28;121653;-64
2021/04/02 09:37:46;;;;;;;5.97;4.50;;;;;;;13.94;62.82;101151.25;4837283;28;99062;-61
2021/04/02 09:40:13;;;;;;;6.80;4.70;;;;;;;13.94;62.87;101143.94;4852309;28;117497;-62
2021/04/02 09:42:39;;;;;;;6.53;4.40;;;;;;;13.98;62.64;101139.59;4833682;28;98027;-64
2021/04/02 09:45:10;;;;;;;5.88;4.13;;;;;;;14.02;62.36;101142.56;4838108;28;99291;-61
2021/04/02 09:47:52;;;;;;;5.85;4.20;;;;;;;14.03;62.40;101144.22;4839603;28;98939;-64
2021/04/02 09:50:18;;;;;;;7.53;4.65;;;;;;;14.09;62.21;101143.09;4835137;28;126930;-64
2021/04/02 09:52:45;;;;;;;6.80;4.35;;;;;;;14.15;62.36;101135.78;4838916;28;115481;-61
2021/04/02 09:55:12;;;;;;;5.93;4.70;;;;;;;14.13;62.30;101132.53;4839633;28;98978;-61
2021/04/02 09:57:38;;;;;;;6.90;4.30;;;;;;;14.15;62.17;101131.19;4838551;28;118622;-61
2021/04/02 10:00:09;;;;;;;6.13;4.10;;;;;;;14.22;62.07;101134.38;4841473;28;100224;-64
2021/04/02 10:02:36;;;;;;;6.10;3.88;;;;;;;14.38;62.11;101134.34;4840755;28;98251;-64
2021/04/02 10:05:03;;;;;;;4.93;3.80;;;;;;;14.44;61.28;101122.41;4841937;28;99426;-64
2021/04/02 10:07:29;;;;;;;6.53;3.97;;;;;;;14.47;61.18;101128.09;4841571;28;98067;-64
2021/04/02 10:09:55;;;;;;;5.32;3.90;;;;;;;14.55;61.50;101120.50;4842074;28;98195;-61
2021/04/02 10:12:22;;;;;;;5.35;3.90;;;;;;;14.63;61.47;101114.50;4842343;28;98232;-64
2021/04/02 10:14:48;;;;;;;5.32;3.90;;;;;;;14.68;60.80;101115.25;4835090;28;120273;-64
2021/04/02 10:17:15;;;;;;;5.38;3.58;;;;;;;14.86;60.85;101105.69;4841251;28;122060;-64
2021/04/02 10:19:41;;;;;;;6.75;3.90;;;;;;;15.14;60.30;101106.88;4837132;28;98044;-64
2021/04/02 10:22:07;;;;;;;4.72;3.60;;;;;;;15.45;58.51;101102.00;4841317;28;97750;-64
2021/04/02 10:24:34;;;;;;;5.78;3.80;;;;;;;15.57;58.64;101104.34;4840385;28;98468;-64
2021/04/02 10:27:00;;;;;;;5.13;3.50;;;;;;;15.66;58.25;101099.94;4841960;28;97950;-64
2021/04/02 10:29:27;;;;;;;4.70;3.70;;;;;;;15.96;57.80;101098.03;4840038;28;122314;-61
2021/04/02 10:31:53;;;;;;;4.45;3.35;;;;;;;15.95;57.64;101099.13;4841879;28;97875;-61
2021/04/02 10:34:19;;;;;;;5.53;3.90;;;;;;;15.93;56.63;101095.88;4835095;28;98230;-61
2021/04/02 10:36:45;;;;;;;4.38;3.40;;;;;;;16.03;56.02;101097.66;4841084;28;128208;-61
2021/04/02 10:39:11;;;;;;;4.70;2.90;;;;;;;16.36;55.42;101087.78;4841710;28;98615;-64
2021/04/02 10:41:40;;;;;;;4.00;2.90;;;;;;;16.38;54.75;101080.94;4832121;28;97762;-64
2021/04/02 10:44:07;;;;;;;4.28;2.85;;;;;;;16.53;54.97;101081.84;4840068;28;123099;-64
2021/04/02 10:46:33;;;;;;;5.18;3.03;;;;;;;16.57;54.48;101077.44;4853812;28;98344;-61
2021/04/02 10:48:59;;;;;;;5.53;2.95;;;;;;;16.52;54.38;101082.97;4819850;28;108774;-64
2021/04/02 10:51:25;;;;;;;4.13;2.67;;;;;;;16.68;54.13;101084.38;4841234;28;110298;-61
2021/04/02 10:54:00;;;;;;;4.20;2.42;;;;;;;17.11;53.96;101076.97;4839513;28;120685;-61
2021/04/02 10:56:29;;;;;;;3.67;2.38;;;;;;;17.49;53.30;101070.63;4841143;28;98036;-61
2021/04/02 10:58:55;;;;;;;2.85;1.98;;;;;;;17.76;53.95;101064.44;4837549;28;98008;-61
2021/04/02 11:01:22;;;;;;;3.08;2.08;;;;;;;17.88;54.40;101072.94;4842492;28;98215;-64
2021/04/02 11:03:48;;;;;;;3.25;2.10;;;;;;;17.66;54.59;101065.44;4840531;28;98085;-65
2021/04/02 11:06:14;;;;;;;3.88;2.20;;;;;;;17.76;55.23;101067.97;4841210;28;100801;-65
2021/04/02 11:08:40;;;;;;;3.15;1.65;;;;;;;17.99;55.35;101062.66;4841665;28;99265;-61
2021/04/02 11:11:09;;;;;;;3.03;2.00;;;;;;;18.01;56.01;101057.72;4841067;28;109840;-61
2021/04/02 11:13:35;;;;;;;2.95;1.85;;;;;;;17.84;55.24;101059.13;4841374;28;98785;-64
2021/04/02 11:16:02;;;;;;;2.58;1.67;;;;;;;17.60;55.23;101058.44;4835109;28;98377;-64
2021/04/02 11:18:28;;;;;;;3.35;1.70;;;;;;;17.49;55.67;101057.00;4841274;28;98293;-61
2021/04/02 11:20:54;;;;;;;2.72;1.70;;;;;;;17.39;54.17;101053.34;4840000;28;97869;-61
2021/04/02 11:23:20;;;;;;;2.70;1.73;;;;;;;17.36;56.22;101050.41;4822681;28;128331;-65
2021/04/02 11:25:46;;;;;;;2.72;1.50;;;;;;;17.22;54.86;101055.03;4837729;28;128219;-64
2021/04/02 11:28:12;;;;;;;2.20;1.40;;;;;;;17.94;54.07;101047.19;4838751;28;98045;-65
2021/04/02 11:30:39;;;;;;;4.00;1.60;;;;;;;17.90;56.55;101049.72;4839546;28;98055;-65